createdAt,value
2018-12-03T00:01:06.948Z,99858.73
2018-12-03T00:03:36.129Z,99865.61
2018-12-03T00:06:04.225Z,99876.33
2018-12-03T00:08:33.576Z,99869.41
2018-12-03T00:11:01.755Z,99862.45
2018-12-03T00:13:29.891Z,99867.61
2018-12-03T00:15:58.243Z,99857.68
2018-12-03T00:18:26.387Z,99858.14
2018-12-03T00:20:54.779Z,99852.97
2018-12-03T00:23:22.822Z,99849.16
2018-12-03T00:25:50.947Z,99848.58
2018-12-03T00:28:18.977Z,99845.27
2018-12-03T00:30:47.105Z,99845.58
2018-12-03T00:33:15.135Z,99842.92
2018-12-03T00:35:43.284Z,99848.14
2018-12-03T00:38:11.349Z,99845.88
2018-12-03T00:40:39.778Z,99844.08
2018-12-03T00:43:08.084Z,99849.04
2018-12-03T00:45:36.139Z,99843.67
2018-12-03T00:48:04.388Z,99845.68
2018-12-03T00:50:32.582Z,99838.11
2018-12-03T00:53:01.077Z,99837.53
2018-12-03T00:55:30.860Z,99841.27
2018-12-03T00:57:58.907Z,99842.20
2018-12-03T01:00:27.000Z,99836.38
2018-12-03T01:02:55.136Z,99829.20
2018-12-03T01:05:23.249Z,99835.08
2018-12-03T01:07:51.424Z,99835.34
2018-12-03T01:10:19.558Z,99837.78
2018-12-03T01:12:47.676Z,99833.95
2018-12-03T01:15:16.877Z,99826.84
2018-12-03T01:17:45.006Z,99837.08
2018-12-03T01:20:14.258Z,99841.51
2018-12-03T01:22:42.521Z,99840.69
2018-12-03T01:25:10.600Z,99849.27
2018-12-03T01:27:39.341Z,99849.27
2018-12-03T01:30:09.676Z,99863.63
2018-12-03T01:32:37.738Z,99855.69
2018-12-03T01:35:06.798Z,99848.94
2018-12-03T01:37:36.442Z,99850.33
2018-12-03T01:40:05.680Z,99849.40
2018-12-03T01:42:33.719Z,99845.80
2018-12-03T01:45:01.756Z,99851.84
2018-12-03T01:47:29.859Z,99863.49
2018-12-03T01:49:57.993Z,99859.83
2018-12-03T01:52:26.033Z,99855.52
2018-12-03T01:54:54.116Z,99846.70
2018-12-03T01:57:22.219Z,99856.86
2018-12-03T01:59:57.107Z,99849.86
2018-12-03T02:02:25.236Z,99861.17
2018-12-03T02:04:53.287Z,99857.45
2018-12-03T02:07:21.368Z,99849.63
2018-12-03T02:09:49.383Z,99855.80
2018-12-03T02:12:24.132Z,99856.63
2018-12-03T02:14:52.256Z,99857.55
2018-12-03T02:17:20.299Z,99855.98
2018-12-03T02:19:48.367Z,99862.97
2018-12-03T02:22:16.479Z,99856.86
2018-12-03T02:24:46.598Z,99848.81
2018-12-03T02:27:14.640Z,99852.41
2018-12-03T02:29:42.723Z,99848.83
2018-12-03T02:32:11.008Z,99841.27
2018-12-03T02:34:39.051Z,99839.39
2018-12-03T02:37:07.993Z,99852.80
2018-12-03T02:39:36.196Z,99844.77
2018-12-03T02:42:04.295Z,99845.08
2018-12-03T02:44:32.647Z,99846.02
2018-12-03T02:47:00.684Z,99835.80
2018-12-03T02:49:32.610Z,99841.42
2018-12-03T02:52:02.032Z,99840.92
2018-12-03T02:54:30.208Z,99838.12
2018-12-03T02:56:58.331Z,99832.63
2018-12-03T02:59:26.453Z,99838.33
2018-12-03T03:01:56.029Z,99836.95
2018-12-03T03:04:24.167Z,99842.06
2018-12-03T03:06:52.203Z,99841.28
2018-12-03T03:09:21.074Z,99843.24
2018-12-03T03:11:49.418Z,99844.95
2018-12-03T03:14:17.500Z,99843.79
2018-12-03T03:16:45.623Z,99834.05
2018-12-03T03:19:13.737Z,99828.79
2018-12-03T03:21:42.133Z,99835.17
2018-12-03T03:24:10.187Z,99838.11
2018-12-03T03:26:38.622Z,99836.94
2018-12-03T03:29:06.763Z,99836.38
2018-12-03T03:31:35.743Z,99838.23
2018-12-03T03:34:06.005Z,99845.03
2018-12-03T03:36:34.551Z,99846.64
2018-12-03T03:39:02.577Z,99847.78
2018-12-03T03:41:30.638Z,99849.63
2018-12-03T03:43:58.748Z,99847.41
2018-12-03T03:46:27.201Z,99851.48
2018-12-03T03:48:55.643Z,99848.71
2018-12-03T03:51:23.808Z,99848.92
2018-12-03T03:53:54.273Z,99850.48
2018-12-03T03:56:22.260Z,99843.24
2018-12-03T03:58:51.495Z,99835.61
2018-12-03T04:01:19.609Z,99840.97
2018-12-03T04:03:49.745Z,99842.77
2018-12-03T04:06:17.976Z,99845.17
2018-12-03T04:08:46.416Z,99834.80
2018-12-03T04:11:14.510Z,99840.19
2018-12-03T04:13:43.491Z,99844.36
2018-12-03T04:16:11.636Z,99848.56
2018-12-03T04:18:40.035Z,99856.84
2018-12-03T04:21:08.096Z,99856.89
2018-12-03T04:23:36.169Z,99851.72
2018-12-03T04:26:06.008Z,99855.42
2018-12-03T04:28:34.127Z,99855.98
2018-12-03T04:31:02.177Z,99853.91
2018-12-03T04:33:30.458Z,99851.54
2018-12-03T04:35:58.511Z,99854.55
2018-12-03T04:38:27.573Z,99856.73
2018-12-03T04:40:55.664Z,99860.96
2018-12-03T04:43:23.803Z,99860.86
2018-12-03T04:45:51.971Z,99863.66
2018-12-03T04:48:20.402Z,99865.71
2018-12-03T04:50:48.888Z,99869.05
2018-12-03T04:53:17.098Z,99867.35
2018-12-03T04:55:45.302Z,99867.48
2018-12-03T04:58:13.741Z,99872.76
2018-12-03T05:00:42.531Z,99872.14
2018-12-03T05:03:10.717Z,99873.42
2018-12-03T05:05:38.845Z,99870.83
2018-12-03T05:08:07.014Z,99870.60
2018-12-03T05:10:35.435Z,99871.32
2018-12-03T05:13:04.315Z,99862.39
2018-12-03T05:15:32.437Z,99870.17
2018-12-03T05:18:00.615Z,99867.43
2018-12-03T05:20:28.849Z,99871.84
2018-12-03T05:22:58.209Z,99874.64
2018-12-03T05:25:26.481Z,99876.03
2018-12-03T05:27:54.523Z,99876.72
2018-12-03T05:30:23.608Z,99876.49
2018-12-03T05:32:51.684Z,99878.59
2018-12-03T05:35:21.770Z,99880.80
2018-12-03T05:37:49.880Z,99885.45
2018-12-03T05:40:18.709Z,99880.79
2018-12-03T05:42:54.112Z,99888.47
2018-12-03T05:45:22.340Z,99892.56
2018-12-03T05:47:51.630Z,99888.48
2018-12-03T05:50:21.004Z,99891.37
2018-12-03T05:52:49.264Z,99882.33
2018-12-03T05:55:17.683Z,99882.66
2018-12-03T05:57:45.967Z,99887.09
2018-12-03T06:00:17.549Z,99883.97
2018-12-03T06:02:45.670Z,99889.42
2018-12-03T06:05:15.407Z,99885.11
2018-12-03T06:07:43.511Z,99895.23
2018-12-03T06:10:12.940Z,99893.14
2018-12-03T06:12:41.009Z,99900.00
2018-12-03T06:15:11.677Z,99893.13
2018-12-03T06:17:40.869Z,99891.75
2018-12-03T06:20:18.926Z,99899.41
2018-12-03T06:22:47.726Z,99892.21
2018-12-03T06:25:17.307Z,99910.59
2018-12-03T06:27:46.574Z,99912.09
2018-12-03T06:30:19.448Z,99908.73
2018-12-03T06:32:47.516Z,99910.23
2018-12-03T06:35:15.908Z,99914.06
2018-12-03T06:37:44.647Z,99912.11
2018-12-03T06:40:14.256Z,99908.95
2018-12-03T06:42:42.359Z,99910.81
2018-12-03T06:45:11.215Z,99916.64
2018-12-03T06:47:40.177Z,99919.64
2018-12-03T06:50:09.616Z,99920.94
2018-12-03T06:52:37.735Z,99920.00
2018-12-03T06:55:07.343Z,99922.20
2018-12-03T06:57:35.489Z,99923.45
2018-12-03T07:00:04.959Z,99914.51
2018-12-03T07:02:34.998Z,99918.34
2018-12-03T07:05:03.197Z,99920.20
2018-12-03T07:07:31.960Z,99914.91
2018-12-03T07:10:02.549Z,99925.91
2018-12-03T07:12:30.795Z,99915.33
2018-12-03T07:14:59.936Z,99921.61
2018-12-03T07:17:28.037Z,99921.14
2018-12-03T07:19:56.732Z,99930.67
2018-12-03T07:22:24.853Z,99933.23
2018-12-03T07:24:53.072Z,99934.98
2018-12-03T07:27:21.121Z,99935.09
2018-12-03T07:29:52.895Z,99933.02
2018-12-03T07:32:17.826Z,99925.55
2018-12-03T07:34:48.542Z,99943.72
2018-12-03T07:37:19.740Z,99938.72
2018-12-03T07:39:47.759Z,99942.77
2018-12-03T07:44:58.949Z,99930.81
2018-12-03T07:47:29.558Z,99942.56
2018-12-03T07:50:00.636Z,99949.18
2018-12-03T07:52:28.966Z,99947.78
2018-12-03T07:54:58.051Z,99955.34
2018-12-03T08:00:07.758Z,99951.39
2018-12-03T08:02:36.610Z,99953.02
2018-12-03T08:05:05.091Z,99955.57
2018-12-03T08:07:33.583Z,99965.67
2018-12-03T08:10:01.789Z,99953.44
2018-12-03T08:12:29.984Z,99955.78
2018-12-03T08:14:59.101Z,99935.11
2018-12-03T08:17:27.170Z,99957.91
2018-12-03T08:19:59.516Z,99945.22
2018-12-03T08:22:27.594Z,99949.06
2018-12-03T08:24:55.656Z,99945.58
2018-12-03T08:27:23.792Z,99954.06
2018-12-03T08:29:52.864Z,99964.89
2018-12-03T08:35:52.761Z,99958.60
2018-12-03T08:38:21.845Z,99963.60
2018-12-03T08:40:49.974Z,99953.22
2018-12-03T08:43:18.043Z,99964.73
2018-12-03T08:45:46.266Z,99964.98
2018-12-03T08:48:14.281Z,99968.91
2018-12-03T08:50:43.320Z,99960.09
2018-12-03T08:53:12.387Z,99967.67
2018-12-03T08:55:40.501Z,99972.80
2018-12-03T08:58:11.428Z,99969.66
2018-12-03T09:00:40.398Z,99971.86
2018-12-03T09:03:24.490Z,99967.89
2018-12-03T09:05:53.731Z,99982.08
2018-12-03T09:08:21.916Z,99983.02
2018-12-03T09:10:50.000Z,99973.61
2018-12-03T09:13:19.932Z,99987.09
2018-12-03T09:15:53.252Z,99988.13
2018-12-03T09:18:21.410Z,99983.61
2018-12-03T09:20:50.907Z,99973.97
2018-12-03T09:23:22.282Z,99994.81
2018-12-03T09:25:50.397Z,99991.90
2018-12-03T09:28:19.101Z,99990.51
2018-12-03T09:30:47.218Z,99989.33
2018-12-03T09:33:15.261Z,99982.69
2018-12-03T09:35:43.366Z,99985.97
2018-12-03T09:38:11.454Z,99998.28
2018-12-03T09:40:39.565Z,99988.25
2018-12-03T09:43:07.653Z,99987.77
2018-12-03T09:45:36.846Z,99989.52
2018-12-03T09:48:05.154Z,99977.95
2018-12-03T09:50:33.266Z,99981.47
2018-12-03T09:53:01.300Z,99980.64
2018-12-03T09:55:31.188Z,99978.81
2018-12-03T09:58:08.121Z,99975.70
2018-12-03T10:00:36.200Z,99977.49
2018-12-03T10:03:08.436Z,99979.27
2018-12-03T10:05:37.693Z,99972.30
2018-12-03T10:08:06.016Z,99966.19
2018-12-03T10:10:34.122Z,99972.91
2018-12-03T10:13:06.330Z,99969.20
2018-12-03T10:15:34.431Z,99968.02
2018-12-03T10:18:02.571Z,99971.83
2018-12-03T10:20:31.729Z,99960.12
2018-12-03T10:23:00.010Z,99958.25
2018-12-03T10:25:28.125Z,99958.03
2018-12-03T10:28:00.332Z,99955.56
2018-12-03T10:30:28.860Z,99950.77
2018-12-03T10:32:56.991Z,99944.67
2018-12-03T10:35:29.500Z,99938.40
2018-12-03T10:37:57.595Z,99934.70
2018-12-03T10:40:26.985Z,99933.87
2018-12-03T10:42:55.860Z,99926.17
2018-12-03T10:45:26.191Z,99931.95
2018-12-03T10:47:55.866Z,99937.89
2018-12-03T10:50:23.984Z,99932.46
2018-12-03T10:52:52.120Z,99929.30
2018-12-03T10:55:20.180Z,99933.95
2018-12-03T10:57:48.423Z,99930.81
2018-12-03T11:00:22.837Z,99925.18
2018-12-03T11:02:57.057Z,99928.84
2018-12-03T11:05:38.882Z,99926.19
2018-12-03T11:08:07.059Z,99927.80
2018-12-03T11:10:39.354Z,99914.48
2018-12-03T11:13:08.539Z,99900.80
2018-12-03T11:15:36.672Z,99908.81
2018-12-03T11:18:05.442Z,99899.98
2018-12-03T11:23:06.729Z,99892.00
2018-12-03T11:25:36.197Z,99886.78
2018-12-03T11:28:05.910Z,99887.37
2018-12-03T11:30:34.180Z,99880.09
2018-12-03T11:33:03.627Z,99882.34
2018-12-03T11:35:34.217Z,99878.27
2018-12-03T11:38:07.997Z,99887.28
2018-12-03T11:40:53.805Z,99886.45
2018-12-03T11:43:24.773Z,99881.43
2018-12-03T11:45:52.800Z,99890.62
2018-12-03T11:48:21.776Z,99889.71
2018-12-03T11:50:49.913Z,99883.39
2018-12-03T11:53:18.456Z,99881.75
2018-12-03T11:55:48.723Z,99880.05
2018-12-03T11:58:16.881Z,99882.13
2018-12-03T12:00:45.082Z,99881.39
2018-12-03T12:03:13.198Z,99877.10
2018-12-03T12:05:41.271Z,99879.55
2018-12-03T12:08:10.165Z,99870.25
2018-12-03T12:10:38.241Z,99874.21
2018-12-03T12:13:06.296Z,99875.94
2018-12-03T12:15:36.915Z,99871.89
2018-12-03T12:18:08.160Z,99866.95
2018-12-03T12:20:36.288Z,99863.58
2018-12-03T12:23:04.570Z,99862.12
2018-12-03T12:25:32.831Z,99851.63
2018-12-03T12:28:00.992Z,99855.28
2018-12-03T12:30:29.124Z,99855.36
2018-12-03T12:32:57.145Z,99845.12
2018-12-03T12:35:25.745Z,99838.48
2018-12-03T12:37:56.737Z,99837.73
2018-12-03T12:40:21.846Z,99828.52
2018-12-03T12:42:50.027Z,99829.30
2018-12-03T12:45:20.394Z,99820.64
2018-12-03T12:47:48.452Z,99817.54
2018-12-03T12:50:17.237Z,99817.28
2018-12-03T12:52:45.281Z,99809.55
2018-12-03T12:55:13.431Z,99809.41
2018-12-03T12:57:41.564Z,99805.83
2018-12-03T13:00:12.771Z,99809.83
2018-12-03T13:02:40.897Z,99800.73
2018-12-03T13:05:09.911Z,99792.80
2018-12-03T13:07:37.965Z,99797.27
2018-12-03T13:10:08.387Z,99790.15
2018-12-03T13:12:36.430Z,99789.25
2018-12-03T13:15:04.776Z,99780.13
2018-12-03T13:17:32.886Z,99771.91
2018-12-03T13:20:00.970Z,99773.79
2018-12-03T13:22:34.000Z,99773.05
2018-12-03T13:25:02.171Z,99762.84
2018-12-03T13:27:30.275Z,99763.06
2018-12-03T13:29:58.462Z,99773.34
2018-12-03T13:32:26.499Z,99765.98
2018-12-03T13:34:54.598Z,99765.89
2018-12-03T13:37:22.697Z,99762.20
2018-12-03T13:39:50.852Z,99768.44
2018-12-03T13:42:18.970Z,99772.06
2018-12-03T13:44:46.985Z,99765.89
2018-12-03T13:47:15.127Z,99762.55
2018-12-03T13:49:43.260Z,99766.36
2018-12-03T13:52:11.357Z,99766.30
2018-12-03T13:54:39.496Z,99758.33
2018-12-03T13:57:07.618Z,99771.14
2018-12-03T13:59:35.679Z,99772.16
2018-12-03T14:02:04.493Z,99776.97
2018-12-03T14:04:33.741Z,99769.00
2018-12-03T14:07:05.160Z,99763.26
2018-12-03T14:09:43.297Z,99754.19
2018-12-03T14:12:19.223Z,99750.64
2018-12-03T14:15:26.261Z,99750.72
2018-12-03T14:17:58.456Z,99754.04
2018-12-03T14:20:28.283Z,99751.64
2018-12-03T14:22:59.215Z,99755.91
2018-12-03T14:25:27.958Z,99765.03
2018-12-03T14:27:56.015Z,99764.47
2018-12-03T14:30:25.097Z,99756.05
2018-12-03T14:32:55.498Z,99749.59
2018-12-03T14:35:23.548Z,99750.84
2018-12-03T14:37:52.640Z,99746.40
2018-12-03T14:40:20.752Z,99746.10
2018-12-03T14:42:48.796Z,99749.09
2018-12-03T14:45:16.887Z,99759.70
2018-12-03T14:47:45.611Z,99754.86
2018-12-03T14:50:13.654Z,99751.31
2018-12-03T14:52:41.755Z,99750.25
2018-12-03T14:55:11.072Z,99748.81
2018-12-03T14:57:39.108Z,99745.21
2018-12-03T15:00:09.627Z,99747.64
2018-12-03T15:02:37.670Z,99755.99
2018-12-03T15:05:06.143Z,99762.48
2018-12-03T15:07:34.843Z,99756.87
2018-12-03T15:10:02.864Z,99761.84
2018-12-03T15:12:30.895Z,99754.99
2018-12-03T15:14:58.970Z,99763.09
2018-12-03T15:17:27.026Z,99761.12
2018-12-03T15:19:55.108Z,99752.30
2018-12-03T15:22:23.168Z,99756.20
2018-12-03T15:24:51.190Z,99749.94
2018-12-03T15:27:20.535Z,99746.73
2018-12-03T15:29:48.637Z,99749.66
2018-12-03T15:32:16.660Z,99746.95
2018-12-03T15:34:44.939Z,99753.72
2018-12-03T15:37:13.064Z,99745.37
2018-12-03T15:39:42.054Z,99742.39
2018-12-03T15:42:10.154Z,99743.03
2018-12-03T15:44:39.372Z,99747.89
2018-12-03T15:47:07.464Z,99742.30
2018-12-03T15:49:35.512Z,99741.92
2018-12-03T15:52:03.683Z,99738.19
2018-12-03T15:54:31.754Z,99746.97
2018-12-03T15:57:01.831Z,99754.88
2018-12-03T15:59:30.000Z,99748.70
2018-12-03T16:01:58.108Z,99755.92
2018-12-03T16:04:28.439Z,99749.16
2018-12-03T16:06:59.906Z,99749.11
2018-12-03T16:09:30.175Z,99753.09
2018-12-03T16:12:05.427Z,99761.59
2018-12-03T16:14:33.705Z,99764.66
2018-12-03T16:17:03.725Z,99767.39
2018-12-03T16:19:31.827Z,99766.11
2018-12-03T16:21:59.944Z,99778.42
2018-12-03T16:24:33.040Z,99761.31
2018-12-03T16:27:01.272Z,99766.61
2018-12-03T16:29:29.414Z,99774.21
2018-12-03T16:31:57.476Z,99782.58
2018-12-03T16:34:26.139Z,99773.60
2018-12-03T16:36:54.235Z,99774.90
2018-12-03T16:39:22.360Z,99779.56
2018-12-03T16:41:50.379Z,99776.53
2018-12-03T16:44:18.466Z,99781.88
2018-12-03T16:46:46.539Z,99779.19
2018-12-03T16:49:16.191Z,99776.17
2018-12-03T16:51:45.504Z,99775.25
2018-12-03T16:54:14.071Z,99782.48
2018-12-03T16:56:43.303Z,99787.84
2018-12-03T16:59:12.632Z,99778.73
2018-12-03T17:01:41.338Z,99780.37
2018-12-03T17:04:09.774Z,99775.05
2018-12-03T17:06:43.939Z,99761.62
2018-12-03T17:09:13.923Z,99766.98
2018-12-03T17:11:42.879Z,99767.91
2018-12-03T17:14:10.966Z,99754.80
2018-12-03T17:16:39.935Z,99779.64
2018-12-03T17:19:08.021Z,99779.83
2018-12-03T17:21:47.495Z,99794.16
2018-12-03T17:24:18.045Z,99800.22
2018-12-03T17:26:46.122Z,99797.30
2018-12-03T17:29:15.546Z,99806.72
2018-12-03T17:31:43.671Z,99814.81
2018-12-03T17:34:12.182Z,99815.35
2018-12-03T17:36:40.424Z,99819.42
2018-12-03T17:39:08.713Z,99825.23
2018-12-03T17:41:36.957Z,99831.05
2018-12-03T17:44:08.851Z,99831.17
2018-12-03T17:46:37.124Z,99829.24
2018-12-03T17:49:05.222Z,99840.10
2018-12-03T17:51:33.439Z,99840.00
2018-12-03T17:54:01.667Z,99841.42
2018-12-03T17:56:41.623Z,99844.70
2018-12-03T17:59:11.112Z,99847.91
2018-12-03T18:01:39.128Z,99852.05
2018-12-03T18:04:07.224Z,99854.05
2018-12-03T18:06:36.500Z,99867.88
2018-12-03T18:09:04.925Z,99862.00
2018-12-03T18:11:33.126Z,99869.70
2018-12-03T18:14:01.156Z,99875.09
2018-12-03T18:16:29.347Z,99868.47
2018-12-03T18:18:58.339Z,99880.79
2018-12-03T18:21:26.405Z,99879.05
2018-12-03T18:23:54.609Z,99877.56
2018-12-03T18:26:22.586Z,99882.45
2018-12-03T18:28:50.723Z,99882.89
2018-12-03T18:31:18.784Z,99885.07
2018-12-03T18:33:46.878Z,99893.45
2018-12-03T18:36:15.783Z,99895.75
2018-12-03T18:38:43.902Z,99897.78
2018-12-03T18:41:12.033Z,99904.86
2018-12-03T18:43:40.183Z,99904.81
2018-12-03T18:46:08.302Z,99916.48
2018-12-03T18:48:38.556Z,99906.14
2018-12-03T18:51:07.436Z,99915.23
2018-12-03T18:53:36.149Z,99924.30
2018-12-03T18:56:05.184Z,99920.91
2018-12-03T19:01:25.833Z,99917.55
2018-12-03T19:03:53.942Z,99926.87
2018-12-03T19:06:22.024Z,99922.67
2018-12-03T19:08:51.329Z,99928.28
2018-12-03T19:11:19.360Z,99930.24
2018-12-03T19:13:47.419Z,99931.83
2018-12-03T19:16:15.523Z,99931.73
2018-12-03T19:18:43.658Z,99932.81
2018-12-03T19:21:12.935Z,99933.98
2018-12-03T19:23:42.031Z,99946.65
2018-12-03T19:26:10.373Z,99954.07
2018-12-03T19:28:38.559Z,99961.20
2018-12-03T19:31:06.792Z,99952.58
2018-12-03T19:33:36.149Z,99959.91
2018-12-03T19:36:10.070Z,99965.50
2018-12-03T19:38:38.477Z,99974.45
2018-12-03T19:41:06.923Z,99978.29
2018-12-03T19:43:35.170Z,99980.73
2018-12-03T19:46:03.246Z,99985.85
2018-12-03T19:48:31.355Z,99990.96
2018-12-03T19:51:01.345Z,99999.58
2018-12-03T19:53:29.379Z,99997.16
2018-12-03T19:55:58.412Z,100001.45
2018-12-03T19:58:29.486Z,100007.83
2018-12-03T20:00:57.835Z,100006.87
2018-12-03T20:03:26.912Z,100026.70
2018-12-03T20:05:55.564Z,100036.70
2018-12-03T20:08:23.989Z,100048.45
2018-12-03T20:10:52.306Z,100053.36
2018-12-03T20:13:20.445Z,100061.52
2018-12-03T20:15:48.603Z,100070.59
2018-12-03T20:18:17.741Z,100067.42
2018-12-03T20:20:47.273Z,100076.98
2018-12-03T20:23:18.040Z,100085.00
2018-12-03T20:25:49.967Z,100098.16
2018-12-03T20:28:21.754Z,100103.88
2018-12-03T20:30:59.726Z,100112.04
2018-12-03T20:33:31.908Z,100130.26
2018-12-03T20:36:06.713Z,100148.40
2018-12-03T20:38:43.430Z,100167.89
2018-12-03T20:41:48.770Z,100176.65
2018-12-03T20:44:24.677Z,100195.27
2018-12-03T20:55:35.843Z,100212.41
2018-12-03T20:58:04.570Z,100247.96
2018-12-03T21:00:34.877Z,100258.05
2018-12-03T21:03:04.113Z,100269.09
2018-12-03T21:05:32.305Z,100273.14
2018-12-03T21:08:01.136Z,100289.65
2018-12-03T21:10:29.314Z,100298.33
2018-12-03T21:12:57.788Z,100309.41
2018-12-03T21:15:27.231Z,100327.02
2018-12-03T21:17:55.487Z,100339.09
2018-12-03T21:20:25.246Z,100354.27
2018-12-03T21:22:53.387Z,100358.25
2018-12-03T21:25:21.540Z,100375.05
2018-12-03T21:27:58.749Z,100382.73
2018-12-03T21:30:27.072Z,100396.39
2018-12-03T21:32:56.374Z,100402.81
2018-12-03T21:35:32.463Z,100424.81
2018-12-03T21:40:39.391Z,100443.72
2018-12-03T21:43:08.505Z,100435.45
2018-12-03T21:45:47.820Z,100450.59
2018-12-03T21:48:16.506Z,100459.16
2018-12-03T21:50:45.612Z,100472.19
2018-12-03T21:53:15.171Z,100476.58
2018-12-03T21:55:51.943Z,100483.61
2018-12-03T21:58:20.067Z,100503.02
2018-12-03T22:00:58.113Z,100509.66
2018-12-03T22:03:26.242Z,100522.24
2018-12-03T22:05:57.482Z,100527.62
2018-12-03T22:08:27.956Z,100522.50
2018-12-03T22:10:56.162Z,100519.36
2018-12-03T22:13:25.190Z,100528.78
2018-12-03T22:15:53.435Z,100530.53
2018-12-03T22:18:22.153Z,100536.81
2018-12-03T22:20:51.098Z,100535.11
2018-12-03T22:23:19.356Z,100551.31
2018-12-03T22:25:47.653Z,100560.61
2018-12-03T22:28:17.154Z,100565.08
2018-12-03T22:30:45.372Z,100574.12
2018-12-03T22:33:13.754Z,100575.64
2018-12-03T22:35:42.155Z,100584.55
2018-12-03T22:38:10.673Z,100601.23
2018-12-03T22:40:39.644Z,100602.25
2018-12-03T22:43:08.628Z,100604.48
2018-12-03T22:45:36.918Z,100614.81
2018-12-03T22:48:05.075Z,100618.33
2018-12-03T22:50:33.462Z,100632.55
2018-12-03T22:53:01.903Z,100647.05
2018-12-03T22:55:30.031Z,100653.47
2018-12-03T22:57:58.302Z,100665.31
2018-12-03T23:00:31.927Z,100664.83
2018-12-03T23:03:00.289Z,100676.14
2018-12-03T23:05:28.548Z,100674.43
2018-12-03T23:08:30.575Z,100684.27
2018-12-03T23:11:11.495Z,100697.19
2018-12-03T23:13:43.660Z,100706.20
2018-12-03T23:16:12.084Z,100711.99
2018-12-03T23:18:40.686Z,100716.80
2018-12-03T23:21:09.008Z,100719.02
2018-12-03T23:23:37.428Z,100718.97
2018-12-03T23:26:05.594Z,100722.53
2018-12-03T23:28:33.937Z,100723.96
2018-12-03T23:31:02.187Z,100740.09
2018-12-03T23:33:30.213Z,100741.95
2018-12-03T23:35:58.329Z,100743.67
2018-12-03T23:38:26.487Z,100749.84
2018-12-03T23:40:54.618Z,100761.64
2018-12-03T23:43:22.803Z,100771.88
2018-12-03T23:45:50.861Z,100782.98
2018-12-03T23:48:19.036Z,100787.40
2018-12-03T23:50:47.098Z,100792.20
2018-12-03T23:53:16.087Z,100798.22
2018-12-03T23:55:44.154Z,100801.44
2018-12-03T23:58:13.400Z,100809.31
